プラハ の空港の天気 - METARとTAF

ルズィニエ国際空港(プラハ) ( LKPR / PRG ) - チェコ プラハ
飛行場実況気象(Metar)
観測時間09/25 23:00 CEST (09/25 21:00 UTC)
風向・風速西南西 2m/s
視程10km以上
天気現象
少しの雲 雲底高度 1310m
気温12℃
湿度94%
気圧1009hPa
METARLKPR 252100Z 24004KT 200V260 9999 FEW043 12/11 Q1009 NOSIG
過去の天気等 Google飛行場航空写真 Wunderground天気予報

過去48時間のMETAR

飛行場予報(TAF)
発表時間: 9/25 19:00 CEST (9/25 17:00 UTC)
予報対象時間: 25日20時 CEST ~ 27日2時 CEST
風向・風速南南西 3m/s
視程10km以上
全天の4割程度の雲 雲底高度 910m
26日4時 CEST ~ 26日6時 CEST に徐々に
風向・風速西南西 6m/s
25日20時 CEST ~ 26日16時 CEST に一時的に
視程7000m
天気現象しゅう雨
全天の4割程度の塔状積雲 雲底高度 760m
25日20時 CEST ~ 25日23時 CEST に 確率 30% で一時的に
視程4000m
天気現象雷雨
全天の4割程度の積乱雲 雲底高度 610m
TAF LKPR 251700Z 2518/2700 21006KT 9999 SCT030
BECMG 2602/2604 25012KT
TEMPO 2518/2614 7000 SHRA SCT025TCU
PROB30 TEMPO 2518/2521 4000 TSRA SCT020CB